createdAt,value
2023-01-12T00:04:49.047Z,1.48
2023-01-12T00:09:50.371Z,1.55
2023-01-12T00:14:53.082Z,1.52
2023-01-12T00:19:54.641Z,1.77
2023-01-12T00:24:56.249Z,1.65
2023-01-12T00:29:57.583Z,2.22
2023-01-12T00:34:59.075Z,1.67
2023-01-12T00:40:03.069Z,1.50
2023-01-12T00:45:23.081Z,1.95
2023-01-12T00:55:25.688Z,1.27
2023-01-12T01:00:27.156Z,2.10
2023-01-12T01:05:29.708Z,1.73
2023-01-12T01:10:31.094Z,1.55
2023-01-12T01:15:32.445Z,2.10
2023-01-12T01:20:36.522Z,1.60
2023-01-12T01:25:37.872Z,2.50
2023-01-12T01:30:39.204Z,2.22
2023-01-12T01:35:40.727Z,1.98
2023-01-12T01:40:43.306Z,1.65
2023-01-12T01:45:45.998Z,2.00
2023-01-12T01:50:52.688Z,1.65
2023-01-12T01:55:59.004Z,1.95
2023-01-12T02:01:00.494Z,1.55
2023-01-12T02:06:01.905Z,1.95
2023-01-12T02:11:03.366Z,2.08
2023-01-12T02:16:23.242Z,2.30
2023-01-12T02:21:24.692Z,1.67
2023-01-12T02:26:38.105Z,1.83
2023-01-12T02:31:54.484Z,2.00
2023-01-12T02:37:09.061Z,2.17
2023-01-12T02:42:33.588Z,1.48
2023-01-12T02:47:58.217Z,1.98
2023-01-12T02:53:02.859Z,1.70
2023-01-12T02:58:05.901Z,1.75
2023-01-12T03:03:07.333Z,1.05
2023-01-12T03:08:11.664Z,1.48
2023-01-12T03:13:14.902Z,1.45
2023-01-12T03:18:36.704Z,1.45
2023-01-12T03:23:44.183Z,1.63
2023-01-12T03:28:48.413Z,1.90
2023-01-12T03:33:50.148Z,1.63
2023-01-12T03:38:57.610Z,1.38
2023-01-12T03:44:01.055Z,2.13
2023-01-12T03:49:12.965Z,2.30
2023-01-12T03:54:15.479Z,2.42
2023-01-12T03:59:16.942Z,1.48
2023-01-12T04:04:18.393Z,2.17
2023-01-12T04:09:19.950Z,1.73
2023-01-12T04:14:21.271Z,1.35
2023-01-12T04:19:22.580Z,1.98
2023-01-12T04:24:23.956Z,1.17
2023-01-12T04:29:25.276Z,1.30
2023-01-12T04:34:26.594Z,1.23
2023-01-12T04:39:28.410Z,1.20
2023-01-12T04:44:29.886Z,1.17
2023-01-12T04:49:31.203Z,1.70
2023-01-12T04:54:32.529Z,1.98
2023-01-12T04:59:33.917Z,1.70
2023-01-12T05:04:35.324Z,1.63
2023-01-12T05:09:55.227Z,1.15
2023-01-12T05:14:56.614Z,1.23
2023-01-12T05:20:00.666Z,1.05
2023-01-12T05:25:02.243Z,1.33
2023-01-12T05:30:03.802Z,1.42
2023-01-12T05:35:06.010Z,1.15
2023-01-12T05:40:07.706Z,1.25
2023-01-12T05:45:09.766Z,1.00
2023-01-12T05:50:11.168Z,1.30
2023-01-12T05:55:12.468Z,1.50
2023-01-12T06:00:14.066Z,1.33
2023-01-12T06:05:15.453Z,0.90
2023-01-12T06:10:16.990Z,1.50
2023-01-12T06:15:18.311Z,1.20
2023-01-12T06:20:19.649Z,1.42
2023-01-12T06:25:21.413Z,1.80
2023-01-12T06:30:23.056Z,1.23
2023-01-12T06:35:24.365Z,1.40
2023-01-12T06:40:25.704Z,1.42
2023-01-12T06:45:27.066Z,1.75
2023-01-12T06:50:28.558Z,1.10
2023-01-12T06:55:29.934Z,0.80
2023-01-12T07:00:31.651Z,1.70
2023-01-12T07:05:33.001Z,1.23
2023-01-12T07:10:34.345Z,1.05
2023-01-12T07:15:35.728Z,1.30
2023-01-12T07:20:37.135Z,1.42
2023-01-12T07:25:38.466Z,1.00
2023-01-12T07:30:39.773Z,1.10
2023-01-12T07:35:41.897Z,1.30
2023-01-12T07:40:43.235Z,1.15
2023-01-12T07:45:45.045Z,1.25
2023-01-12T07:50:46.553Z,1.13
2023-01-12T07:55:47.917Z,1.65
2023-01-12T08:00:49.306Z,1.08
2023-01-12T08:05:50.727Z,1.42
2023-01-12T08:10:52.175Z,0.80
2023-01-12T08:15:54.517Z,1.00
2023-01-12T08:20:58.172Z,1.23
2023-01-12T08:26:01.111Z,0.73
2023-01-12T08:31:02.658Z,0.52
2023-01-12T08:36:05.013Z,1.25
2023-01-12T08:41:25.187Z,0.60
2023-01-12T08:46:26.581Z,0.63
2023-01-12T08:51:28.212Z,0.65
2023-01-12T08:56:29.526Z,1.42
2023-01-12T09:01:31.055Z,0.80
2023-01-12T09:06:36.552Z,1.38
2023-01-12T09:11:38.995Z,0.70
2023-01-12T09:16:40.518Z,0.80
2023-01-12T09:21:42.129Z,0.95
2023-01-12T09:26:44.945Z,2.10
2023-01-12T09:31:46.371Z,0.95
2023-01-12T09:36:48.798Z,1.00
2023-01-12T09:42:08.927Z,1.02
2023-01-12T09:47:17.087Z,1.05
2023-01-12T09:52:18.432Z,1.20
2023-01-12T09:57:28.791Z,1.02
2023-01-12T10:02:33.604Z,0.98
2023-01-12T10:07:35.204Z,1.27
2023-01-12T10:12:43.245Z,0.93
2023-01-12T10:17:53.943Z,0.70
2023-01-12T10:22:58.654Z,1.40
2023-01-12T10:28:00.797Z,0.77
2023-01-12T10:33:31.630Z,0.85
2023-01-12T10:38:35.928Z,0.77
2023-01-12T10:43:37.855Z,1.10
2023-01-12T10:48:42.602Z,0.85
2023-01-12T10:53:45.382Z,1.10
2023-01-12T10:58:58.014Z,0.90
2023-01-12T11:04:05.993Z,1.10
2023-01-12T11:09:33.586Z,0.70
2023-01-12T11:14:37.949Z,0.90
2023-01-12T11:19:42.043Z,1.00
2023-01-12T11:24:44.967Z,0.70
2023-01-12T11:29:54.343Z,1.00
2023-01-12T11:40:02.187Z,1.10
2023-01-12T11:45:19.912Z,1.02
2023-01-12T11:50:27.581Z,1.00
2023-01-12T11:55:34.623Z,1.13
2023-01-12T12:01:00.967Z,1.75
2023-01-12T12:06:22.550Z,1.08
2023-01-12T12:11:33.875Z,1.17
2023-01-12T12:16:45.886Z,0.82
2023-01-12T12:21:54.845Z,1.02
2023-01-12T12:27:06.129Z,1.38
2023-01-12T12:32:10.248Z,0.90
2023-01-12T12:37:16.907Z,1.10
2023-01-12T12:42:53.037Z,0.50
2023-01-12T12:47:57.303Z,0.60
2023-01-12T12:53:07.442Z,0.68
2023-01-12T12:58:31.925Z,0.50
2023-01-12T13:03:39.217Z,0.50
2023-01-12T13:08:40.746Z,0.73
2023-01-12T13:13:59.291Z,0.60
2023-01-12T13:19:00.591Z,0.57
2023-01-12T13:24:11.573Z,0.55
2023-01-12T13:29:28.292Z,0.70
2023-01-12T13:34:42.024Z,0.73
2023-01-12T13:39:49.755Z,0.75
2023-01-12T13:44:51.740Z,0.50
2023-01-12T13:49:56.297Z,0.75
2023-01-12T13:54:58.088Z,0.60
2023-01-12T14:00:08.543Z,0.80
2023-01-12T14:05:22.117Z,1.20
2023-01-12T14:10:37.618Z,0.60
2023-01-12T14:15:58.130Z,0.70
2023-01-12T14:20:59.717Z,0.57
2023-01-12T14:26:10.220Z,0.60
2023-01-12T14:31:30.206Z,0.88
2023-01-12T14:36:36.952Z,0.63
2023-01-12T14:41:58.514Z,0.50
2023-01-12T14:46:59.943Z,0.60
2023-01-12T14:52:02.434Z,0.75
2023-01-12T14:57:19.449Z,0.82
2023-01-12T15:02:25.429Z,0.60
2023-01-12T15:07:30.216Z,0.55
2023-01-12T15:12:31.516Z,0.85
2023-01-12T15:17:51.561Z,0.65
2023-01-12T15:23:11.766Z,0.60
2023-01-12T15:28:13.142Z,0.52
2023-01-12T15:33:15.749Z,0.80
2023-01-12T15:38:17.982Z,0.55
2023-01-12T15:43:19.412Z,0.63
2023-01-12T15:48:20.790Z,1.20
2023-01-12T15:53:22.808Z,0.93
2023-01-12T15:58:24.363Z,0.82
2023-01-12T16:03:54.954Z,0.70
2023-01-12T16:08:47.491Z,0.70
2023-01-12T16:13:48.800Z,0.70
2023-01-12T16:18:50.200Z,0.80
2023-01-12T16:23:51.675Z,1.10
2023-01-12T16:28:53.033Z,0.93
2023-01-12T16:33:54.399Z,0.77
2023-01-12T16:38:57.141Z,0.60
2023-01-12T16:43:58.746Z,0.77
2023-01-12T16:49:01.818Z,0.77
2023-01-12T16:54:04.602Z,0.70
2023-01-12T16:59:07.687Z,0.60
2023-01-12T17:04:09.969Z,0.60
2023-01-12T17:09:11.338Z,0.57
2023-01-12T17:14:33.685Z,0.98
2023-01-12T17:19:36.838Z,0.65
2023-01-12T17:24:42.082Z,0.57
2023-01-12T17:29:43.507Z,0.88
2023-01-12T17:34:47.852Z,0.65
2023-01-12T17:39:49.229Z,1.10
2023-01-12T17:44:50.639Z,1.40
2023-01-12T17:49:53.224Z,1.40
2023-01-12T17:54:54.646Z,0.70
2023-01-12T17:59:55.987Z,0.85
2023-01-12T18:04:57.447Z,0.70
2023-01-12T18:09:58.883Z,0.60
2023-01-12T18:15:00.265Z,0.60
2023-01-12T18:20:01.650Z,0.75
2023-01-12T18:25:03.046Z,1.10
2023-01-12T18:30:04.779Z,0.95
2023-01-12T18:35:07.320Z,1.10
2023-01-12T18:40:09.019Z,0.90
2023-01-12T18:45:10.513Z,0.80
2023-01-12T18:50:30.504Z,0.82
2023-01-12T18:55:37.270Z,0.98
2023-01-12T19:00:39.080Z,0.90
2023-01-12T19:05:58.866Z,1.02
2023-01-12T19:16:36.460Z,1.00
2023-01-12T19:21:56.578Z,0.75
2023-01-12T19:27:16.591Z,0.80
2023-01-12T19:32:18.070Z,1.02
2023-01-12T19:37:19.449Z,1.00
2023-01-12T19:42:39.303Z,0.90
2023-01-12T19:52:42.863Z,0.98
2023-01-12T19:57:44.242Z,0.98
2023-01-12T20:02:45.793Z,0.75
2023-01-12T20:07:47.296Z,0.57
2023-01-12T20:12:49.379Z,0.63
2023-01-12T20:17:50.998Z,0.60
2023-01-12T20:22:52.596Z,0.98
2023-01-12T20:27:54.431Z,0.73
2023-01-12T20:32:55.741Z,0.70
2023-01-12T20:37:57.091Z,0.98
2023-01-12T20:42:58.457Z,0.90
2023-01-12T20:47:59.809Z,1.17
2023-01-12T20:53:01.155Z,1.30
2023-01-12T20:58:02.470Z,1.05
2023-01-12T21:03:04.260Z,0.70
2023-01-12T21:08:08.342Z,0.60
2023-01-12T21:13:09.989Z,1.13
2023-01-12T21:18:11.822Z,1.10
2023-01-12T21:23:13.148Z,1.00
2023-01-12T21:28:14.517Z,0.70
2023-01-12T21:33:15.833Z,1.20
2023-01-12T21:38:17.878Z,1.10
2023-01-12T21:43:19.448Z,1.33
2023-01-12T21:48:22.229Z,0.85
2023-01-12T21:53:23.533Z,1.20
2023-01-12T21:58:25.227Z,0.60
2023-01-12T22:03:27.254Z,0.70
2023-01-12T22:08:28.573Z,0.60
2023-01-12T22:13:29.919Z,0.63
2023-01-12T22:18:31.237Z,0.90
2023-01-12T22:23:32.869Z,0.60
2023-01-12T22:28:34.974Z,0.68
2023-01-12T22:33:36.913Z,0.73
2023-01-12T22:38:38.269Z,0.40
2023-01-12T22:43:42.753Z,0.75
2023-01-12T22:48:44.460Z,1.00
2023-01-12T22:53:45.755Z,0.80
2023-01-12T22:58:47.865Z,0.70
2023-01-12T23:03:52.092Z,0.50
2023-01-12T23:08:53.438Z,0.60
2023-01-12T23:13:54.819Z,0.60
2023-01-12T23:18:56.193Z,0.52
2023-01-12T23:23:58.607Z,0.50
2023-01-12T23:29:00.589Z,0.57
2023-01-12T23:34:02.050Z,0.60
2023-01-12T23:39:05.491Z,0.70
2023-01-12T23:44:07.836Z,0.60
2023-01-12T23:49:09.800Z,0.60
2023-01-12T23:54:12.898Z,0.60
2023-01-12T23:59:14.626Z,0.80
